createdAt,value
2022-09-27T00:01:31.125Z,5.90
2022-09-27T00:04:02.592Z,4.95
2022-09-27T00:06:32.789Z,5.20
2022-09-27T00:09:03.606Z,5.03
2022-09-27T00:11:39.227Z,5.10
2022-09-27T00:14:09.098Z,5.45
2022-09-27T00:16:39.469Z,4.80
2022-09-27T00:19:18.773Z,5.17
2022-09-27T00:21:48.132Z,5.53
2022-09-27T00:24:21.433Z,5.42
2022-09-27T00:26:50.619Z,5.78
2022-09-27T00:29:20.597Z,4.85
2022-09-27T00:31:50.378Z,4.95
2022-09-27T00:34:23.019Z,5.55
2022-09-27T00:36:53.235Z,5.87
2022-09-27T00:39:23.159Z,5.35
2022-09-27T00:41:52.252Z,5.28
2022-09-27T00:44:33.638Z,5.78
2022-09-27T00:47:08.700Z,5.65
2022-09-27T00:49:46.781Z,6.10
2022-09-27T00:52:28.979Z,5.75
2022-09-27T00:55:03.749Z,6.15
2022-09-27T00:57:33.065Z,5.70
2022-09-27T01:00:09.828Z,5.78
2022-09-27T01:02:42.800Z,6.17
2022-09-27T01:05:13.652Z,6.20
2022-09-27T01:07:44.057Z,6.33
2022-09-27T01:10:14.091Z,5.47
2022-09-27T01:12:49.381Z,5.37
2022-09-27T01:15:50.113Z,6.40
2022-09-27T01:18:35.957Z,6.62
2022-09-27T01:21:34.013Z,6.10
2022-09-27T01:27:14.761Z,5.97
2022-09-27T01:30:21.419Z,6.17
2022-09-27T01:33:06.885Z,6.87
2022-09-27T01:36:07.801Z,7.20
2022-09-27T01:39:05.037Z,6.90
2022-09-27T01:41:54.237Z,7.28
2022-09-27T01:44:51.279Z,7.78
2022-09-27T01:47:26.314Z,7.97
2022-09-27T01:50:26.707Z,8.80
2022-09-27T01:53:25.528Z,8.63
2022-09-27T01:56:00.390Z,7.83
2022-09-27T01:58:57.847Z,8.75
2022-09-27T02:01:29.570Z,8.98
2022-09-27T02:04:00.424Z,8.95
2022-09-27T02:06:45.520Z,8.90
2022-09-27T02:09:33.941Z,8.50
2022-09-27T02:12:11.435Z,8.60
2022-09-27T02:15:05.329Z,9.63
2022-09-27T02:18:02.879Z,9.18
2022-09-27T02:20:42.858Z,9.13
2022-09-27T02:23:27.821Z,9.15
2022-09-27T02:26:25.063Z,9.05
2022-09-27T02:29:18.441Z,9.53
2022-09-27T02:31:50.266Z,9.15
2022-09-27T02:34:25.177Z,9.68
2022-09-27T02:36:54.864Z,8.65
2022-09-27T02:39:24.258Z,9.20
2022-09-27T02:41:58.073Z,9.80
2022-09-27T02:44:28.714Z,9.13
2022-09-27T02:47:21.838Z,9.80
2022-09-27T02:50:27.879Z,9.28
2022-09-27T02:53:22.696Z,9.88
2022-09-27T02:56:41.089Z,12.15
2022-09-27T02:59:45.881Z,10.65
2022-09-27T03:02:53.212Z,10.03
2022-09-27T03:05:46.633Z,10.13
2022-09-27T03:08:16.476Z,11.12
2022-09-27T03:10:45.808Z,11.75
2022-09-27T03:13:16.035Z,11.28
2022-09-27T03:15:46.925Z,14.15
2022-09-27T03:18:35.802Z,13.10
2022-09-27T03:21:12.911Z,14.83
2022-09-27T03:23:43.016Z,15.30
2022-09-27T03:26:13.268Z,14.23
2022-09-27T03:28:43.428Z,13.58
2022-09-27T03:31:12.824Z,14.73
2022-09-27T03:33:52.961Z,16.07
2022-09-27T03:36:22.324Z,15.93
2022-09-27T03:38:52.528Z,16.02
2022-09-27T03:41:22.775Z,15.00
2022-09-27T03:43:52.121Z,16.12
2022-09-27T03:46:22.047Z,17.55
2022-09-27T03:48:52.129Z,18.42
2022-09-27T03:51:21.735Z,19.73
2022-09-27T03:53:52.481Z,17.00
2022-09-27T03:56:22.241Z,18.32
2022-09-27T03:58:51.988Z,16.82
2022-09-27T04:01:23.537Z,18.02
2022-09-27T04:03:53.676Z,17.52
2022-09-27T04:06:27.994Z,18.05
2022-09-27T04:08:58.144Z,17.50
2022-09-27T04:11:30.469Z,17.02
2022-09-27T04:14:00.654Z,16.82
2022-09-27T04:16:32.315Z,18.15
2022-09-27T04:19:16.357Z,18.57
2022-09-27T04:21:52.117Z,18.85
2022-09-27T04:24:21.818Z,18.05
2022-09-27T04:26:54.446Z,18.90
2022-09-27T04:29:26.702Z,20.08
2022-09-27T04:31:56.886Z,20.25
2022-09-27T04:34:56.397Z,18.85
2022-09-27T04:37:27.066Z,17.82
2022-09-27T04:39:58.235Z,19.35
2022-09-27T04:42:28.885Z,20.15
2022-09-27T04:44:59.245Z,18.95
2022-09-27T04:47:28.760Z,17.90
2022-09-27T04:49:58.653Z,19.73
2022-09-27T04:52:27.666Z,18.60
2022-09-27T04:54:58.830Z,19.15
2022-09-27T04:57:29.587Z,21.35
2022-09-27T05:00:00.437Z,20.25
2022-09-27T05:02:31.606Z,19.77
2022-09-27T05:05:04.212Z,19.00
2022-09-27T05:07:38.159Z,19.85
2022-09-27T05:10:10.812Z,19.17
2022-09-27T05:12:40.036Z,19.65
2022-09-27T05:15:10.949Z,19.07
2022-09-27T05:17:59.389Z,19.90
2022-09-27T05:20:37.511Z,20.65
2022-09-27T05:23:15.192Z,19.37
2022-09-27T05:25:45.130Z,19.62
2022-09-27T05:28:14.938Z,19.65
2022-09-27T05:30:45.660Z,19.27
2022-09-27T05:33:18.294Z,20.65
2022-09-27T05:35:55.287Z,20.23
2022-09-27T05:38:27.198Z,20.32
2022-09-27T05:40:59.722Z,19.05
2022-09-27T05:43:29.332Z,18.60
2022-09-27T05:46:01.131Z,19.02
2022-09-27T05:48:32.114Z,20.30
2022-09-27T05:51:07.025Z,20.05
2022-09-27T05:53:38.689Z,18.95
2022-09-27T05:56:11.419Z,19.27
2022-09-27T05:59:00.302Z,20.12
2022-09-27T06:01:32.735Z,19.57
2022-09-27T06:04:16.187Z,21.42
2022-09-27T06:06:48.188Z,17.85
2022-09-27T06:09:19.302Z,19.02
2022-09-27T06:11:51.238Z,20.97
2022-09-27T06:14:22.191Z,21.37
2022-09-27T06:17:04.505Z,20.10
2022-09-27T06:19:36.477Z,18.75
2022-09-27T06:22:07.769Z,19.40
2022-09-27T06:24:43.846Z,19.05
2022-09-27T06:27:18.992Z,20.50
2022-09-27T06:30:01.257Z,17.98
2022-09-27T06:33:02.254Z,19.40
2022-09-27T06:35:46.790Z,16.80
2022-09-27T06:38:18.282Z,22.37
2022-09-27T06:40:50.655Z,23.50
2022-09-27T06:43:35.554Z,19.55
2022-09-27T06:46:19.547Z,18.50
2022-09-27T06:48:51.068Z,18.05
2022-09-27T06:51:22.872Z,30.82
2022-09-27T06:53:53.803Z,19.00
2022-09-27T06:56:23.786Z,18.07
2022-09-27T06:59:13.745Z,18.60
2022-09-27T07:01:46.174Z,18.82
2022-09-27T07:04:34.527Z,18.92
2022-09-27T07:07:10.498Z,19.42
2022-09-27T07:09:43.270Z,18.92
2022-09-27T07:12:14.594Z,20.25
2022-09-27T07:14:45.148Z,18.92
2022-09-27T07:17:16.774Z,19.80
2022-09-27T07:19:49.295Z,19.32
2022-09-27T07:22:19.860Z,20.32
2022-09-27T07:24:52.098Z,20.08
2022-09-27T07:27:25.267Z,20.57
2022-09-27T07:29:55.605Z,19.95
2022-09-27T07:32:27.245Z,20.20
2022-09-27T07:34:57.438Z,20.15
2022-09-27T07:37:27.304Z,19.95
2022-09-27T07:39:57.744Z,20.60
2022-09-27T07:42:28.773Z,19.90
2022-09-27T07:45:00.123Z,22.80
2022-09-27T07:47:48.708Z,18.27
2022-09-27T07:50:22.073Z,20.43
2022-09-27T07:52:56.871Z,19.30
2022-09-27T07:55:38.712Z,18.00
2022-09-27T07:58:13.484Z,16.52
2022-09-27T08:00:44.032Z,16.48
2022-09-27T08:03:15.817Z,16.77
2022-09-27T08:05:48.048Z,18.80
2022-09-27T08:08:20.374Z,17.80
2022-09-27T08:10:53.440Z,18.32
2022-09-27T08:13:24.447Z,18.27
2022-09-27T08:15:55.427Z,18.67
2022-09-27T08:18:26.248Z,19.05
2022-09-27T08:20:59.972Z,19.80
2022-09-27T08:23:35.201Z,20.27
2022-09-27T08:26:12.796Z,20.43
2022-09-27T08:28:53.511Z,18.77
2022-09-27T08:31:25.952Z,19.70
2022-09-27T08:33:58.264Z,18.80
2022-09-27T08:36:30.605Z,19.32
2022-09-27T08:39:00.537Z,21.93
2022-09-27T08:41:39.939Z,21.02
2022-09-27T08:44:20.791Z,19.92
2022-09-27T08:47:03.157Z,21.25
2022-09-27T08:50:00.990Z,21.17
2022-09-27T08:52:43.825Z,22.32
2022-09-27T08:55:54.646Z,21.30
2022-09-27T08:58:42.152Z,19.12
2022-09-27T09:01:16.154Z,17.98
2022-09-27T09:03:52.059Z,18.27
2022-09-27T09:06:25.870Z,21.70
2022-09-27T09:09:18.674Z,19.05
2022-09-27T09:12:46.791Z,18.73
2022-09-27T09:15:58.775Z,18.37
2022-09-27T09:19:04.251Z,19.92
2022-09-27T09:22:10.201Z,19.87
2022-09-27T09:25:02.338Z,17.92
2022-09-27T09:27:52.230Z,18.67
2022-09-27T09:30:24.758Z,17.95
2022-09-27T09:33:17.180Z,18.27
2022-09-27T09:36:03.948Z,18.57
2022-09-27T09:38:51.905Z,17.60
2022-09-27T09:41:31.156Z,16.93
2022-09-27T09:44:08.007Z,16.77
2022-09-27T09:46:45.760Z,17.50
2022-09-27T09:49:25.643Z,16.82
2022-09-27T09:52:08.736Z,18.73
2022-09-27T09:54:47.078Z,18.35
2022-09-27T09:57:28.357Z,18.25
2022-09-27T10:00:17.650Z,16.12
2022-09-27T10:02:48.096Z,17.40
2022-09-27T10:05:26.301Z,16.80
2022-09-27T10:07:59.802Z,18.20
2022-09-27T10:10:29.644Z,18.98
2022-09-27T10:13:21.439Z,17.82
2022-09-27T10:16:03.883Z,16.93
2022-09-27T10:18:33.789Z,18.30
2022-09-27T10:21:08.362Z,18.73
2022-09-27T10:23:38.082Z,16.95
2022-09-27T10:26:12.240Z,17.87
2022-09-27T10:28:51.622Z,16.05
2022-09-27T10:31:22.816Z,16.90
2022-09-27T10:34:06.058Z,16.97
2022-09-27T10:36:42.931Z,16.60
2022-09-27T10:39:22.745Z,18.95
2022-09-27T10:41:52.039Z,18.77
2022-09-27T10:44:32.577Z,20.02
2022-09-27T10:47:10.462Z,22.10
2022-09-27T10:49:44.615Z,21.48
2022-09-27T10:52:23.500Z,23.10
2022-09-27T10:55:04.057Z,24.25
2022-09-27T10:57:33.207Z,21.35
2022-09-27T11:00:32.690Z,22.98
2022-09-27T11:03:08.413Z,22.00
2022-09-27T11:05:39.355Z,23.77
2022-09-27T11:08:30.647Z,25.08
2022-09-27T11:11:19.686Z,24.25
2022-09-27T11:14:07.884Z,27.67
2022-09-27T11:17:03.472Z,23.90
2022-09-27T11:19:41.687Z,24.52
2022-09-27T11:22:41.587Z,23.40
2022-09-27T11:25:36.506Z,25.75
2022-09-27T11:28:36.556Z,24.47
2022-09-27T11:31:35.669Z,24.82
2022-09-27T11:34:12.304Z,23.95
2022-09-27T11:37:14.277Z,25.72
2022-09-27T11:40:10.721Z,26.27
2022-09-27T11:43:07.374Z,24.12
2022-09-27T11:46:16.714Z,26.00
2022-09-27T11:49:19.775Z,24.65
2022-09-27T11:52:36.477Z,24.25
2022-09-27T11:55:26.168Z,26.23
2022-09-27T11:58:27.629Z,25.82
2022-09-27T12:01:28.786Z,25.65
2022-09-27T12:04:29.153Z,24.15
2022-09-27T12:07:25.845Z,25.23
2022-09-27T12:09:59.518Z,26.57
2022-09-27T12:12:31.036Z,27.82
2022-09-27T12:15:06.935Z,26.23
2022-09-27T12:17:40.366Z,28.12
2022-09-27T12:20:28.595Z,26.45
2022-09-27T12:23:17.877Z,26.93
2022-09-27T12:25:52.617Z,27.98
2022-09-27T12:28:55.007Z,27.85
2022-09-27T12:31:46.492Z,27.50
2022-09-27T12:34:45.834Z,28.23
2022-09-27T12:37:38.553Z,26.85
2022-09-27T12:40:26.175Z,28.55
2022-09-27T12:43:11.903Z,26.87
2022-09-27T12:46:22.962Z,28.05
2022-09-27T12:49:00.446Z,27.05
2022-09-27T12:51:54.041Z,29.35
2022-09-27T12:54:56.135Z,27.77
2022-09-27T12:57:58.677Z,29.12
2022-09-27T13:00:32.328Z,28.40
2022-09-27T13:03:52.981Z,27.93
2022-09-27T13:06:39.483Z,27.20
2022-09-27T13:09:42.067Z,28.57
2022-09-27T13:12:18.978Z,26.90
2022-09-27T13:15:15.648Z,26.40
2022-09-27T13:17:53.360Z,26.95
2022-09-27T13:20:44.168Z,27.55
2022-09-27T13:23:29.731Z,26.12
2022-09-27T13:26:03.527Z,27.42
2022-09-27T13:28:56.715Z,25.97
2022-09-27T13:32:01.131Z,25.27
2022-09-27T13:34:57.325Z,25.35
2022-09-27T13:37:55.910Z,26.90
2022-09-27T13:40:32.682Z,26.73
2022-09-27T13:43:17.958Z,26.68
2022-09-27T13:46:01.718Z,24.15
2022-09-27T13:48:43.139Z,25.30
2022-09-27T13:51:33.638Z,23.67
2022-09-27T13:54:10.568Z,23.22
2022-09-27T13:56:46.408Z,23.10
2022-09-27T13:59:49.301Z,21.52
2022-09-27T14:02:29.451Z,23.73
2022-09-27T14:05:00.005Z,23.67
2022-09-27T14:07:40.568Z,23.70
2022-09-27T14:10:21.623Z,22.80
2022-09-27T14:12:53.391Z,21.87
2022-09-27T14:15:30.718Z,24.15
2022-09-27T14:20:42.088Z,23.98
2022-09-27T14:23:23.654Z,23.32
2022-09-27T14:25:54.942Z,22.15
2022-09-27T14:28:29.066Z,21.73
2022-09-27T14:31:18.444Z,22.50
2022-09-27T14:33:57.443Z,21.52
2022-09-27T14:36:52.953Z,22.75
2022-09-27T14:39:35.933Z,21.37
2022-09-27T14:42:21.968Z,46.40
2022-09-27T14:44:51.351Z,23.02
2022-09-27T14:47:26.526Z,22.67
2022-09-27T14:50:05.751Z,21.02
2022-09-27T14:52:35.274Z,20.17
2022-09-27T14:55:16.121Z,20.57
2022-09-27T14:57:59.080Z,20.68
2022-09-27T15:00:35.165Z,21.93
2022-09-27T15:03:06.413Z,23.53
2022-09-27T15:05:36.376Z,22.20
2022-09-27T15:08:06.636Z,23.02
2022-09-27T15:10:37.099Z,23.32
2022-09-27T15:13:09.773Z,22.75
2022-09-27T15:15:43.060Z,22.17
2022-09-27T15:18:41.241Z,22.55
2022-09-27T15:21:16.451Z,23.12
2022-09-27T15:23:46.066Z,23.83
2022-09-27T15:26:23.400Z,23.12
2022-09-27T15:31:35.310Z,21.23
2022-09-27T15:34:06.335Z,19.55
2022-09-27T15:36:54.881Z,21.12
2022-09-27T15:39:37.246Z,21.27
2022-09-27T15:42:17.509Z,20.92
2022-09-27T15:44:50.141Z,19.73
2022-09-27T15:47:39.861Z,20.48
2022-09-27T15:50:30.782Z,19.32
2022-09-27T15:53:02.790Z,18.52
2022-09-27T15:55:33.100Z,21.00
2022-09-27T15:58:21.010Z,20.82
2022-09-27T16:03:27.218Z,21.57
2022-09-27T16:05:58.076Z,22.07
2022-09-27T16:08:29.578Z,21.17
2022-09-27T16:10:59.626Z,21.60
2022-09-27T16:13:32.941Z,20.52
2022-09-27T16:16:02.888Z,21.93
2022-09-27T16:18:34.420Z,23.45
2022-09-27T16:21:04.695Z,21.37
2022-09-27T16:23:34.923Z,23.02
2022-09-27T16:26:05.109Z,22.25
2022-09-27T16:28:34.884Z,24.20
2022-09-27T16:31:07.826Z,23.22
2022-09-27T16:33:37.009Z,22.50
2022-09-27T16:36:09.782Z,22.67
2022-09-27T16:38:42.028Z,22.22
2022-09-27T16:41:11.774Z,24.07
2022-09-27T16:43:44.891Z,23.95
2022-09-27T16:46:16.099Z,23.35
2022-09-27T16:48:49.512Z,23.50
2022-09-27T16:51:39.979Z,21.93
2022-09-27T16:54:09.685Z,21.80
2022-09-27T16:56:40.028Z,22.67
2022-09-27T16:59:09.490Z,22.52
2022-09-27T17:01:40.128Z,22.93
2022-09-27T17:04:09.642Z,23.95
2022-09-27T17:06:38.892Z,23.32
2022-09-27T17:09:08.327Z,22.58
2022-09-27T17:11:37.191Z,23.45
2022-09-27T17:14:08.218Z,24.75
2022-09-27T17:16:38.016Z,22.75
2022-09-27T17:19:09.160Z,22.52
2022-09-27T17:21:38.382Z,22.90
2022-09-27T17:24:09.809Z,25.25
2022-09-27T17:26:40.224Z,24.18
2022-09-27T17:29:12.625Z,25.62
2022-09-27T17:31:42.625Z,22.70
2022-09-27T17:34:13.526Z,23.65
2022-09-27T17:36:44.022Z,24.95
2022-09-27T17:39:14.679Z,24.92
2022-09-27T17:41:46.346Z,24.40
2022-09-27T17:44:18.550Z,23.73
2022-09-27T17:46:50.689Z,23.40
2022-09-27T17:49:38.205Z,23.95
2022-09-27T17:52:08.780Z,23.30
2022-09-27T17:54:40.087Z,23.60
2022-09-27T17:57:10.551Z,23.32
2022-09-27T17:59:41.233Z,23.25
2022-09-27T18:02:10.326Z,23.85
2022-09-27T18:04:39.963Z,25.43
2022-09-27T18:07:11.212Z,23.62
2022-09-27T18:09:43.234Z,24.12
2022-09-27T18:12:13.467Z,23.95
2022-09-27T18:14:45.886Z,24.98
2022-09-27T18:17:16.913Z,24.85
2022-09-27T18:19:46.621Z,23.22
2022-09-27T18:22:16.456Z,22.77
2022-09-27T18:24:46.478Z,22.52
2022-09-27T18:27:17.826Z,22.77
2022-09-27T18:29:46.877Z,22.67
2022-09-27T18:32:16.913Z,24.02
2022-09-27T18:34:46.020Z,22.95
2022-09-27T18:37:15.403Z,23.47
2022-09-27T18:39:45.479Z,22.65
2022-09-27T18:42:14.380Z,23.47
2022-09-27T18:44:44.124Z,23.65
2022-09-27T18:47:15.155Z,23.77
2022-09-27T18:49:44.815Z,23.98
2022-09-27T18:52:13.711Z,23.85
2022-09-27T18:54:43.910Z,22.87
2022-09-27T18:57:12.988Z,24.90
2022-09-27T18:59:42.790Z,24.05
2022-09-27T19:02:13.076Z,23.25
2022-09-27T19:04:42.448Z,22.30
2022-09-27T19:07:11.745Z,21.90
2022-09-27T19:09:40.604Z,23.00
2022-09-27T19:12:10.309Z,22.80
2022-09-27T19:14:41.869Z,22.95
2022-09-27T19:17:11.888Z,22.50
2022-09-27T19:19:42.005Z,21.12
2022-09-27T19:22:11.273Z,21.30
2022-09-27T19:24:40.674Z,19.85
2022-09-27T19:27:11.099Z,20.37
2022-09-27T19:29:40.554Z,20.85
2022-09-27T19:32:10.386Z,20.02
2022-09-27T19:34:40.318Z,19.35
2022-09-27T19:37:11.252Z,19.25
2022-09-27T19:39:41.293Z,19.95
2022-09-27T19:42:11.011Z,20.82
2022-09-27T19:44:41.116Z,19.45
2022-09-27T19:47:10.817Z,19.73
2022-09-27T19:49:40.758Z,18.85
2022-09-27T19:52:10.434Z,19.67
2022-09-27T19:54:40.209Z,20.23
2022-09-27T19:57:10.249Z,19.80
2022-09-27T19:59:42.269Z,19.02
2022-09-27T20:02:12.205Z,18.65
2022-09-27T20:04:41.986Z,18.62
2022-09-27T20:07:11.128Z,18.75
2022-09-27T20:09:42.034Z,16.30
2022-09-27T20:12:11.561Z,16.62
2022-09-27T20:14:42.582Z,15.53
2022-09-27T20:17:12.154Z,15.60
2022-09-27T20:19:42.265Z,16.57
2022-09-27T20:22:12.096Z,16.12
2022-09-27T20:24:41.521Z,16.27
2022-09-27T20:27:11.389Z,17.10
2022-09-27T20:29:41.100Z,16.25
2022-09-27T20:32:26.756Z,17.37
2022-09-27T20:34:42.371Z,16.48
2022-09-27T20:37:11.925Z,15.98
2022-09-27T20:39:42.419Z,15.63
2022-09-27T20:42:13.215Z,16.50
2022-09-27T20:44:42.606Z,16.93
2022-09-27T20:47:12.507Z,16.00
2022-09-27T20:49:42.717Z,15.58
2022-09-27T20:52:12.124Z,15.05
2022-09-27T20:54:41.389Z,15.90
2022-09-27T20:57:12.872Z,15.63
2022-09-27T20:59:43.089Z,14.93
2022-09-27T21:02:12.024Z,14.75
2022-09-27T21:04:41.731Z,14.78
2022-09-27T21:07:11.799Z,15.65
2022-09-27T21:09:41.260Z,15.78
2022-09-27T21:12:11.546Z,16.42
2022-09-27T21:14:43.843Z,16.27
2022-09-27T21:17:13.541Z,14.83
2022-09-27T21:19:42.977Z,14.20
2022-09-27T21:22:12.857Z,14.93
2022-09-27T21:24:42.368Z,15.03
2022-09-27T21:27:12.194Z,15.40
2022-09-27T21:29:41.747Z,16.25
2022-09-27T21:32:11.396Z,15.80
2022-09-27T21:34:41.607Z,15.78
2022-09-27T21:37:11.134Z,14.68
2022-09-27T21:39:40.502Z,16.93
2022-09-27T21:42:11.010Z,16.75
2022-09-27T21:44:40.618Z,15.30
2022-09-27T21:47:10.877Z,15.58
2022-09-27T21:49:40.513Z,15.85
2022-09-27T21:52:09.578Z,15.25
2022-09-27T21:54:39.723Z,14.93
2022-09-27T21:57:09.244Z,16.05
2022-09-27T21:59:39.489Z,15.90
2022-09-27T22:02:09.497Z,14.75
2022-09-27T22:04:39.452Z,15.58
2022-09-27T22:07:09.378Z,14.65
2022-09-27T22:09:39.597Z,15.80
2022-09-27T22:12:09.619Z,16.67
2022-09-27T22:14:40.957Z,14.90
2022-09-27T22:17:09.848Z,14.98
2022-09-27T22:19:39.597Z,14.90
2022-09-27T22:22:08.887Z,15.70
2022-09-27T22:24:38.231Z,15.85
2022-09-27T22:27:08.748Z,16.30
2022-09-27T22:29:37.692Z,16.00
2022-09-27T22:32:08.541Z,16.48
2022-09-27T22:34:38.427Z,16.50
2022-09-27T22:37:08.099Z,16.93
2022-09-27T22:39:38.281Z,17.40
2022-09-27T22:42:08.985Z,16.85
2022-09-27T22:44:39.506Z,16.57
2022-09-27T22:47:09.201Z,16.60
2022-09-27T22:49:38.960Z,16.65
2022-09-27T22:52:08.038Z,17.60
2022-09-27T22:54:37.477Z,16.85
2022-09-27T22:57:07.701Z,15.30
2022-09-27T22:59:37.730Z,15.93
2022-09-27T23:02:07.840Z,15.75
2022-09-27T23:04:37.138Z,16.75
2022-09-27T23:07:07.585Z,15.88
2022-09-27T23:09:38.092Z,15.03
2022-09-27T23:12:09.029Z,15.63
2022-09-27T23:14:42.549Z,16.35
2022-09-27T23:17:11.324Z,16.37
2022-09-27T23:19:42.569Z,16.35
2022-09-27T23:22:13.844Z,15.48
2022-09-27T23:24:44.039Z,16.12
2022-09-27T23:27:32.367Z,15.70
2022-09-27T23:30:01.511Z,15.85
2022-09-27T23:32:32.071Z,16.45
2022-09-27T23:35:01.618Z,15.68
2022-09-27T23:37:31.472Z,15.03
2022-09-27T23:40:17.046Z,16.73
2022-09-27T23:42:48.105Z,16.75
2022-09-27T23:45:18.989Z,16.07
2022-09-27T23:47:48.700Z,16.73
2022-09-27T23:50:17.928Z,15.63
2022-09-27T23:52:47.640Z,16.10
2022-09-27T23:55:17.883Z,16.73
2022-09-27T23:57:47.738Z,16.60
